Time;durP1;ratioP1;P1;durP2;ratioP2;P2;SDS_P1;SDS_P2;PMS_P1;PMS_P2;Temp;Humidity;BMP_temperature;BMP_pressure;BME280_temperature;BME280_humidity;BME280_pressure;Samples;Min_cycle;Max_cycle;Signal;HPM_P1;HPM_P2
2021/04/16 00:00:44;;;;;;;4.42;3.00;;;;;;;0.17;74.13;92827.75;1870397;76;21128;-77
2021/04/16 00:03:14;;;;;;;3.62;2.92;;;;;;;0.13;74.42;92826.12;1870667;76;21527;-83
2021/04/16 00:05:44;;;;;;;3.15;2.85;;;;;;;0.09;74.21;92826.59;1825939;76;21112;-81
2021/04/16 00:08:16;;;;;;;3.67;2.87;;;;;;;0.04;74.76;92826.30;1818576;76;21356;-82
2021/04/16 00:10:49;;;;;;;3.17;2.87;;;;;;;0.00;74.84;92825.42;1857519;76;21201;-83
2021/04/16 00:13:18;;;;;;;4.47;3.37;;;;;;;-0.04;74.92;92826.67;1821623;78;21043;-76
2021/04/16 00:15:46;;;;;;;4.92;3.40;;;;;;;-0.05;75.33;92826.99;1900011;75;21107;-79
2021/04/16 00:18:17;;;;;;;9.58;6.72;;;;;;;-0.06;74.94;92820.10;1847874;75;21075;-82
2021/04/16 00:20:46;;;;;;;4.85;4.25;;;;;;;-0.06;75.80;92826.78;1869507;75;21482;-79
2021/04/16 00:23:14;;;;;;;5.40;3.87;;;;;;;-0.08;75.77;92823.10;1875227;75;21116;-81
2021/04/16 00:25:41;;;;;;;3.47;2.77;;;;;;;-0.11;75.97;92819.80;1842198;75;21100;-82
2021/04/16 00:28:09;;;;;;;2.58;2.37;;;;;;;-0.12;75.16;92816.12;1876376;76;21123;-81
2021/04/16 00:30:46;;;;;;;3.83;3.45;;;;;;;-0.12;74.59;92815.55;1797828;76;21578;-85
2021/04/16 00:33:14;;;;;;;4.85;3.85;;;;;;;-0.11;75.04;92819.03;1807443;78;21520;-79
2021/04/16 00:35:44;;;;;;;4.00;3.58;;;;;;;-0.13;75.33;92815.91;1795142;79;21079;-82
2021/04/16 00:38:12;;;;;;;3.55;2.80;;;;;;;-0.15;75.82;92806.11;1817593;79;21567;-83
2021/04/16 00:40:44;;;;;;;3.15;2.42;;;;;;;-0.15;75.56;92803.44;1804769;76;21563;-81
2021/04/16 00:43:13;;;;;;;3.25;2.52;;;;;;;-0.18;75.74;92802.80;1870618;76;21104;-80
2021/04/16 00:45:43;;;;;;;4.37;3.35;;;;;;;-0.20;76.17;92807.70;1797992;76;21119;-82
2021/04/16 00:48:18;;;;;;;3.33;2.83;;;;;;;-0.24;76.21;92799.59;1846564;76;21136;-82
2021/04/16 00:50:49;;;;;;;3.37;2.77;;;;;;;-0.25;76.43;92802.05;1825504;76;21061;-80
2021/04/16 00:53:18;;;;;;;3.08;2.77;;;;;;;-0.25;76.43;92785.45;1804337;79;21052;-79
2021/04/16 00:55:46;;;;;;;2.90;2.60;;;;;;;-0.27;75.61;92792.25;1808027;77;21045;-81
2021/04/16 00:58:14;;;;;;;2.72;2.50;;;;;;;-0.25;76.14;92795.38;1787862;80;21361;-81
2021/04/16 01:00:43;;;;;;;2.65;2.45;;;;;;;-0.24;76.18;92794.25;1842874;77;21111;-80
2021/04/16 01:03:12;;;;;;;2.37;2.17;;;;;;;-0.23;75.99;92797.69;1842874;76;21151;-80
2021/04/16 01:05:41;;;;;;;3.85;2.62;;;;;;;-0.22;75.97;92787.24;1829870;77;21162;-81
2021/04/16 01:08:10;;;;;;;3.40;3.02;;;;;;;-0.21;76.24;92786.89;1804404;79;21075;-81
2021/04/16 01:10:39;;;;;;;3.47;2.90;;;;;;;-0.20;76.02;92791.11;1805575;79;22323;-81
2021/04/16 01:13:07;;;;;;;4.12;3.33;;;;;;;-0.20;75.91;92787.09;1785460;79;21148;-79
2021/04/16 01:15:39;;;;;;;3.02;2.60;;;;;;;-0.17;75.59;92795.77;1817812;78;21503;-83
2021/04/16 01:18:15;;;;;;;2.98;2.65;;;;;;;-0.13;75.75;92791.86;1820686;76;21029;-78
2021/04/16 01:20:46;;;;;;;2.85;2.60;;;;;;;-0.13;76.08;92781.94;1870270;76;21448;-83
2021/04/16 01:23:41;;;;;;;3.00;2.70;;;;;;;-0.12;75.98;92794.17;1870206;76;21350;-81
2021/04/16 01:26:29;;;;;;;4.70;3.13;;;;;;;-0.10;76.29;92777.25;1811564;79;22298;-79
2021/04/16 01:28:58;;;;;;;3.22;2.80;;;;;;;-0.12;75.85;92781.38;1816901;79;21040;-76
2021/04/16 01:31:27;;;;;;;2.62;2.42;;;;;;;-0.14;76.04;92779.62;1815989;79;21669;-76
2021/04/16 01:33:55;;;;;;;3.75;2.90;;;;;;;-0.15;75.89;92778.84;1814714;79;20954;-77
2021/04/16 01:36:31;;;;;;;2.60;2.40;;;;;;;-0.15;75.99;92782.05;1814833;79;21144;-75
2021/04/16 01:38:59;;;;;;;2.62;2.42;;;;;;;-0.15;76.37;92782.05;1814896;79;21049;-75
2021/04/16 01:41:28;;;;;;;3.10;2.80;;;;;;;-0.17;76.50;92783.75;1814949;79;21092;-75
2021/04/16 01:44:05;;;;;;;2.87;2.52;;;;;;;-0.17;76.87;92766.94;1814740;79;21540;-72
2021/04/16 01:46:57;;;;;;;2.58;2.37;;;;;;;-0.20;76.63;92765.72;1818332;76;20967;-73
2021/04/16 01:49:32;;;;;;;3.37;2.35;;;;;;;-0.21;76.73;92762.06;1863989;76;21523;-73
2021/04/16 01:51:59;;;;;;;2.80;2.20;;;;;;;-0.23;77.07;92777.66;1888951;76;21139;-75
2021/04/16 01:54:33;;;;;;;3.85;2.60;;;;;;;-0.26;77.00;92766.55;1889137;76;21467;-75
2021/04/16 01:57:06;;;;;;;2.30;2.10;;;;;;;-0.27;77.64;92772.98;1890009;76;21098;-72
2021/04/16 01:59:36;;;;;;;3.17;2.87;;;;;;;-0.28;77.51;92770.67;1892245;76;21100;-74
2021/04/16 02:02:07;;;;;;;3.00;2.70;;;;;;;-0.30;77.61;92767.55;1889425;76;21016;-74
2021/04/16 02:04:36;;;;;;;2.50;2.30;;;;;;;-0.30;77.37;92768.35;1889134;75;20910;-76
2021/04/16 02:07:05;;;;;;;2.40;2.20;;;;;;;-0.30;77.33;92769.69;1889178;76;21462;-75
2021/04/16 02:09:34;;;;;;;3.33;2.52;;;;;;;-0.30;77.79;92764.88;1865419;76;21784;-73
2021/04/16 02:12:03;;;;;;;2.37;2.15;;;;;;;-0.30;77.74;92764.88;1809403;76;21127;-75
2021/04/16 02:14:32;;;;;;;2.47;2.27;;;;;;;-0.32;78.14;92763.13;1902012;75;21033;-74
2021/04/16 02:17:04;;;;;;;2.70;2.42;;;;;;;-0.31;77.69;92759.33;1836190;75;21554;-75
2021/04/16 02:19:31;;;;;;;2.45;2.25;;;;;;;-0.32;77.73;92761.79;1820556;78;21112;-73
2021/04/16 02:21:59;;;;;;;2.98;2.12;;;;;;;-0.31;77.55;92760.09;1820447;78;22140;-73
2021/04/16 02:24:27;;;;;;;2.67;2.47;;;;;;;-0.33;77.83;92758.34;1830928;76;21219;-75
2021/04/16 02:26:55;;;;;;;2.42;2.15;;;;;;;-0.33;77.97;92758.34;1890906;76;21040;-77
2021/04/16 02:29:22;;;;;;;2.27;2.08;;;;;;;-0.33;77.59;92759.68;1893040;75;21080;-75
2021/04/16 02:31:50;;;;;;;2.22;2.12;;;;;;;-0.33;76.53;92753.56;1889323;76;21111;-78
2021/04/16 02:34:24;;;;;;;2.40;2.20;;;;;;;-0.29;76.90;92762.45;1889108;76;22682;-78
2021/04/16 02:36:56;;;;;;;2.37;2.17;;;;;;;-0.26;76.51;92757.20;1888707;75;21075;-77
2021/04/16 02:39:25;;;;;;;3.37;2.20;;;;;;;-0.23;76.90;92757.61;1888457;76;21048;-75
2021/04/16 02:41:53;;;;;;;2.17;2.05;;;;;;;-0.26;77.35;92759.87;1888423;75;21096;-74
2021/04/16 02:44:21;;;;;;;2.33;2.00;;;;;;;-0.28;76.69;92753.30;1794312;76;21169;-75
2021/04/16 02:46:49;;;;;;;2.45;2.25;;;;;;;-0.28;77.17;92762.66;1825951;77;21642;-76
2021/04/16 02:49:19;;;;;;;2.22;2.00;;;;;;;-0.29;76.94;92765.89;1888347;76;21112;-73
2021/04/16 02:51:47;;;;;;;2.42;2.22;;;;;;;-0.30;76.46;92764.34;1888507;76;21054;-73
2021/04/16 02:54:14;;;;;;;2.33;1.82;;;;;;;-0.29;75.53;92765.89;1888049;75;21034;-75
2021/04/16 02:56:42;;;;;;;2.58;2.37;;;;;;;-0.28;75.92;92751.97;1929660;74;21566;-77
2021/04/16 02:59:10;;;;;;;2.15;1.87;;;;;;;-0.25;75.41;92764.64;1902406;74;21346;-76
2021/04/16 03:01:37;;;;;;;1.60;1.50;;;;;;;-0.26;74.94;92761.77;1891628;75;21077;-75
2021/04/16 03:04:05;;;;;;;1.87;1.77;;;;;;;-0.23;75.55;92761.62;1891195;75;21057;-75
2021/04/16 03:06:32;;;;;;;2.72;1.90;;;;;;;-0.22;75.33;92761.86;1890941;75;21137;-78
2021/04/16 03:09:01;;;;;;;3.47;2.65;;;;;;;-0.21;75.45;92760.17;1891465;75;21121;-77
2021/04/16 03:11:28;;;;;;;1.50;1.40;;;;;;;-0.23;75.25;92761.06;1891109;75;21179;-78
2021/04/16 03:13:56;;;;;;;2.10;1.82;;;;;;;-0.21;75.55;92760.73;1916383;74;21101;-78
2021/04/16 03:16:25;;;;;;;2.02;1.92;;;;;;;-0.23;75.04;92760.28;1912525;74;21461;-78
2021/04/16 03:18:57;;;;;;;2.35;2.15;;;;;;;-0.22;74.87;92759.95;1867069;74;21094;-75
2021/04/16 03:21:25;;;;;;;2.22;1.90;;;;;;;-0.25;74.82;92750.72;1928583;74;21033;-74
2021/04/16 03:23:53;;;;;;;1.90;1.80;;;;;;;-0.26;74.43;92757.76;1891348;75;21153;-76
2021/04/16 03:26:20;;;;;;;1.55;1.45;;;;;;;-0.25;74.38;92760.64;1891421;75;21097;-75
2021/04/16 03:28:52;;;;;;;1.87;1.65;;;;;;;-0.27;73.38;92749.50;1915825;74;21120;-76
2021/04/16 03:31:20;;;;;;;2.58;1.82;;;;;;;-0.27;73.79;92748.94;1915839;74;21133;-75
2021/04/16 03:33:47;;;;;;;2.72;2.20;;;;;;;-0.27;72.68;92752.95;1896716;74;21206;-75
2021/04/16 03:36:15;;;;;;;2.83;1.82;;;;;;;-0.26;73.20;92750.52;1929281;74;21185;-76
2021/04/16 03:38:46;;;;;;;4.58;3.00;;;;;;;-0.27;72.96;92752.95;1892858;74;21092;-75
2021/04/16 03:41:15;;;;;;;3.00;2.17;;;;;;;-0.27;73.00;92756.95;1891175;75;21044;-75
2021/04/16 03:43:43;;;;;;;1.67;1.50;;;;;;;-0.28;72.48;92757.31;1910574;74;21555;-76
2021/04/16 03:46:10;;;;;;;1.55;1.45;;;;;;;-0.27;72.57;92751.61;1875865;76;21112;-73
2021/04/16 03:48:38;;;;;;;1.70;1.60;;;;;;;-0.28;72.60;92746.06;1867036;74;21578;-76
2021/04/16 03:51:07;;;;;;;3.52;2.40;;;;;;;-0.28;72.74;92751.41;1929283;74;21077;-75
2021/04/16 03:53:37;;;;;;;3.00;2.15;;;;;;;-0.26;72.84;92759.87;1896977;74;21501;-76
2021/04/16 03:56:07;;;;;;;3.60;1.90;;;;;;;-0.27;72.83;92750.84;1891239;75;21046;-73
2021/04/16 03:58:35;;;;;;;2.50;2.02;;;;;;;-0.27;72.34;92755.62;1893049;75;21029;-76
2021/04/16 04:01:05;;;;;;;1.70;1.60;;;;;;;-0.25;71.94;92761.97;1892491;75;21760;-77
2021/04/16 04:03:33;;;;;;;1.70;1.60;;;;;;;-0.26;72.58;92750.52;1891360;75;21085;-76
2021/04/16 04:06:03;;;;;;;1.92;1.77;;;;;;;-0.25;71.62;92749.95;1929339;74;21468;-76
2021/04/16 04:08:32;;;;;;;2.30;2.10;;;;;;;-0.22;71.54;92751.94;1899158;74;21089;-76
2021/04/16 04:11:00;;;;;;;2.40;2.10;;;;;;;-0.19;71.92;92751.80;1891154;75;21102;-77
2021/04/16 04:13:29;;;;;;;2.67;2.35;;;;;;;-0.18;71.76;92753.37;1891166;75;21099;-74
2021/04/16 04:15:59;;;;;;;2.45;1.67;;;;;;;-0.17;71.52;92747.67;1896055;74;21140;-74
2021/04/16 04:18:29;;;;;;;2.62;2.42;;;;;;;-0.14;70.92;92755.57;1929246;74;21061;-75
2021/04/16 04:20:57;;;;;;;2.37;2.17;;;;;;;-0.11;71.32;92756.22;1893259;74;21484;-76
2021/04/16 04:23:25;;;;;;;2.75;2.15;;;;;;;-0.10;71.48;92759.87;1891162;75;21037;-76
2021/04/16 04:25:52;;;;;;;2.30;1.85;;;;;;;-0.08;71.37;92755.51;1891208;75;21641;-77
2021/04/16 04:28:20;;;;;;;2.98;2.70;;;;;;;-0.07;71.79;92755.19;1869026;74;21132;-76
2021/04/16 04:30:47;;;;;;;2.45;2.20;;;;;;;-0.04;71.85;92755.04;1929451;74;21129;-76
2021/04/16 04:33:15;;;;;;;2.87;2.22;;;;;;;0.03;71.28;92747.77;1891238;75;21132;-76
2021/04/16 04:35:42;;;;;;;2.30;2.10;;;;;;;0.31;72.23;92751.13;1922540;74;21033;-76
2021/04/16 04:38:10;;;;;;;2.95;2.33;;;;;;;0.71;71.03;92760.26;1906961;74;21703;-75
2021/04/16 04:40:37;;;;;;;2.37;2.00;;;;;;;1.08;70.09;92762.55;1891092;75;21046;-73
2021/04/16 04:43:04;;;;;;;2.12;1.92;;;;;;;1.41;67.67;92761.30;1891237;75;21128;-74
2021/04/16 04:45:32;;;;;;;2.95;2.10;;;;;;;1.78;67.37;92752.23;1891074;75;21062;-72
2021/04/16 04:48:01;;;;;;;3.05;2.60;;;;;;;2.19;65.46;92742.59;1891060;75;21531;-74
2021/04/16 04:50:28;;;;;;;1.75;1.65;;;;;;;2.53;63.49;92746.77;1917547;74;21559;-77
2021/04/16 04:52:56;;;;;;;2.20;2.00;;;;;;;2.72;63.61;92741.10;1911938;74;21030;-76
2021/04/16 04:55:29;;;;;;;3.40;1.85;;;;;;;2.89;63.11;92739.98;1900120;74;21034;-72
2021/04/16 04:58:00;;;;;;;2.30;2.10;;;;;;;2.89;61.10;92745.36;1929917;74;20997;-76
2021/04/16 05:00:27;;;;;;;2.37;2.17;;;;;;;2.78;62.43;92750.38;1893912;75;21034;-76
2021/04/16 05:02:55;;;;;;;1.80;1.70;;;;;;;2.74;62.29;92744.95;1891335;75;21179;-77
2021/04/16 05:05:23;;;;;;;1.62;1.52;;;;;;;2.63;61.65;92752.08;1891096;75;21065;-74
2021/04/16 05:07:51;;;;;;;2.12;2.00;;;;;;;2.56;62.55;92755.45;1905890;74;21105;-77
2021/04/16 05:10:21;;;;;;;2.05;1.77;;;;;;;2.53;62.24;92750.02;1918528;74;21224;-74
2021/04/16 05:12:48;;;;;;;2.33;2.12;;;;;;;2.49;61.08;92749.20;1863910;77;21085;-76
2021/04/16 05:15:16;;;;;;;2.30;2.10;;;;;;;2.45;61.62;92758.53;1927344;74;21650;-75
2021/04/16 05:17:44;;;;;;;2.27;2.08;;;;;;;2.57;61.95;92746.83;1888409;74;57048;-84
2021/04/16 05:20:13;;;;;;;2.40;2.20;;;;;;;2.83;61.64;92758.91;1851946;77;21011;-84
2021/04/16 05:22:41;;;;;;;2.17;1.98;;;;;;;3.11;61.35;92755.83;1854494;75;21110;-84
2021/04/16 05:25:10;;;;;;;1.90;1.70;;;;;;;3.40;60.68;92765.03;1858413;77;21109;-84
2021/04/16 05:27:37;;;;;;;1.98;1.87;;;;;;;3.68;59.28;92756.31;1859837;77;21357;-83
2021/04/16 05:30:06;;;;;;;2.62;2.25;;;;;;;3.89;58.14;92755.20;1859624;77;21066;-81
2021/04/16 05:32:33;;;;;;;1.92;1.82;;;;;;;4.09;57.19;92755.78;1859641;77;21074;-84
2021/04/16 05:35:01;;;;;;;1.98;1.87;;;;;;;4.12;55.74;92758.50;1859482;77;21560;-85
2021/04/16 05:37:28;;;;;;;1.77;1.67;;;;;;;4.01;57.58;92759.55;1859169;77;21038;-84
2021/04/16 05:39:56;;;;;;;1.98;1.85;;;;;;;3.82;56.54;92751.86;1859304;77;21279;-84
2021/04/16 05:42:23;;;;;;;1.85;1.70;;;;;;;3.72;58.30;92752.52;1859389;77;21097;-83
2021/04/16 05:44:51;;;;;;;1.77;1.67;;;;;;;3.74;56.86;92748.91;1859755;77;21552;-80
2021/04/16 05:47:18;;;;;;;1.57;1.47;;;;;;;3.73;57.65;92753.31;1859612;77;21078;-84
2021/04/16 05:49:45;;;;;;;2.10;1.90;;;;;;;3.67;57.21;92758.81;1859445;77;21029;-84
2021/04/16 05:52:13;;;;;;;2.00;1.80;;;;;;;3.55;58.37;92749.08;1859207;77;21425;-82
2021/04/16 05:54:41;;;;;;;1.70;1.60;;;;;;;3.53;57.50;92752.11;1859630;77;21073;-84
2021/04/16 05:57:08;;;;;;;2.37;2.17;;;;;;;3.50;58.95;92759.59;1860012;77;21567;-81
2021/04/16 05:59:36;;;;;;;1.67;1.57;;;;;;;3.45;57.30;92751.83;1860328;77;21022;-79
2021/04/16 06:02:04;;;;;;;1.60;1.50;;;;;;;3.43;58.23;92762.19;1859211;77;21034;-85
2021/04/16 06:04:31;;;;;;;1.98;1.87;;;;;;;3.38;57.84;92755.77;1860699;77;21395;-84
2021/04/16 06:07:01;;;;;;;2.30;1.85;;;;;;;3.24;58.36;92744.87;1855124;77;21203;-83
2021/04/16 06:09:29;;;;;;;3.12;1.95;;;;;;;3.12;59.10;92749.33;1860086;77;21125;-82
2021/04/16 06:11:56;;;;;;;2.15;1.95;;;;;;;3.09;59.82;92745.26;1860618;77;21112;-84
2021/04/16 06:14:26;;;;;;;2.22;2.02;;;;;;;3.04;59.31;92744.98;1859932;77;21042;-84
2021/04/16 06:16:55;;;;;;;1.50;1.40;;;;;;;2.90;59.63;92754.21;1861718;75;59864;-77
2021/04/16 06:19:23;;;;;;;1.70;1.60;;;;;;;2.79;60.32;92750.60;1894803;75;21042;-75
2021/04/16 06:21:50;;;;;;;2.12;2.02;;;;;;;2.76;60.76;92745.95;1857459;77;21571;-75
2021/04/16 06:24:17;;;;;;;2.60;2.17;;;;;;;2.66;60.50;92754.81;1857664;77;21591;-76
2021/04/16 06:26:46;;;;;;;2.20;2.00;;;;;;;2.55;61.99;92757.91;1858310;77;21046;-75
2021/04/16 06:29:13;;;;;;;1.98;1.87;;;;;;;2.47;61.48;92757.59;1859939;77;21481;-76
2021/04/16 06:31:41;;;;;;;2.98;2.25;;;;;;;2.38;61.79;92756.50;1857311;77;21232;-76
2021/04/16 06:34:08;;;;;;;1.92;1.72;;;;;;;2.34;61.87;92758.94;1857606;77;21164;-77
2021/04/16 06:36:36;;;;;;;5.25;3.87;;;;;;;2.29;62.77;92765.92;1857194;77;21184;-77
2021/04/16 06:39:04;;;;;;;3.85;2.33;;;;;;;2.29;62.50;92757.30;1856645;77;21179;-77
2021/04/16 06:41:32;;;;;;;3.37;2.70;;;;;;;2.29;62.65;92758.64;1857067;77;21780;-74
2021/04/16 06:44:04;;;;;;;3.85;2.85;;;;;;;2.31;62.97;92760.98;1856572;77;21176;-76
2021/04/16 06:46:39;;;;;;;3.22;2.45;;;;;;;2.31;62.04;92765.78;1856603;77;21097;-76
2021/04/16 06:49:11;;;;;;;3.97;3.10;;;;;;;2.33;63.36;92772.12;1857601;77;21176;-75
2021/04/16 06:51:49;;;;;;;3.65;2.45;;;;;;;2.36;62.65;92763.36;1825765;77;21109;-76
2021/04/16 06:54:22;;;;;;;2.40;2.20;;;;;;;2.37;62.66;92758.19;1857490;77;21544;-74
2021/04/16 06:56:50;;;;;;;3.10;2.30;;;;;;;2.37;62.61;92764.89;1859484;77;21125;-75
2021/04/16 06:59:30;;;;;;;2.17;1.98;;;;;;;2.37;62.21;92760.87;1860131;77;21164;-76
2021/04/16 07:02:04;;;;;;;5.90;3.50;;;;;;;2.35;62.56;92765.84;1857440;77;21160;-76
2021/04/16 07:04:53;;;;;;;3.57;2.47;;;;;;;2.36;63.21;92764.70;1857625;77;21077;-77
2021/04/16 07:07:30;;;;;;;2.10;1.85;;;;;;;2.44;63.74;92765.02;1857245;77;21787;-77
2021/04/16 07:10:08;;;;;;;2.30;1.87;;;;;;;2.56;62.97;92770.78;1761558;81;21219;-74
2021/04/16 07:12:35;;;;;;;1.20;1.10;;;;;;;2.67;62.58;92774.38;1911755;74;21153;-77
2021/04/16 07:15:14;;;;;;;1.55;1.30;;;;;;;2.72;61.72;92771.97;1903231;74;21361;-76
2021/04/16 07:17:46;;;;;;;1.70;1.50;;;;;;;2.75;61.71;92765.89;1890412;74;21148;-75
2021/04/16 07:20:21;;;;;;;1.15;1.05;;;;;;;2.76;61.37;92782.20;1916306;74;22066;-74
2021/04/16 07:22:52;;;;;;;2.85;1.40;;;;;;;2.71;60.44;92769.06;1891302;75;21109;-77
2021/04/16 07:25:35;;;;;;;1.95;1.42;;;;;;;2.67;60.92;92790.48;1892110;75;21599;-76
2021/04/16 07:28:08;;;;;;;1.55;1.42;;;;;;;2.64;60.29;92783.94;1908377;74;21077;-77
2021/04/16 07:30:45;;;;;;;1.40;1.30;;;;;;;2.68;61.46;92781.31;1879476;75;21053;-77
2021/04/16 07:33:35;;;;;;;1.22;1.12;;;;;;;2.73;61.54;92782.34;1879115;76;21081;-74
2021/04/16 07:36:32;;;;;;;1.35;1.25;;;;;;;2.77;60.99;92790.45;1879188;76;21129;-76
2021/04/16 07:39:16;;;;;;;1.35;1.30;;;;;;;2.79;61.08;92790.30;1879242;76;21082;-76
2021/04/16 07:41:50;;;;;;;1.30;1.20;;;;;;;2.80;60.22;92793.19;1876845;76;21101;-75
2021/04/16 07:44:34;;;;;;;2.25;1.87;;;;;;;2.78;60.84;92806.76;1879561;76;21108;-75
2021/04/16 07:47:22;;;;;;;2.20;1.57;;;;;;;2.76;60.13;92800.98;1879435;76;22365;-76
2021/04/16 07:50:10;;;;;;;1.47;1.35;;;;;;;2.74;60.65;92797.87;1880480;74;21121;-78
2021/04/16 07:52:43;;;;;;;1.50;1.40;;;;;;;2.72;62.10;92806.87;1919118;74;21117;-75
2021/04/16 07:55:32;;;;;;;1.95;1.75;;;;;;;2.76;61.00;92803.67;1846651;77;21047;-77
2021/04/16 07:58:21;;;;;;;2.17;1.75;;;;;;;2.73;60.05;92803.81;1915090;74;21096;-75
2021/04/16 08:00:49;;;;;;;1.30;1.20;;;;;;;2.71;61.40;92812.81;1884875;74;21125;-73
2021/04/16 08:03:25;;;;;;;2.27;2.02;;;;;;;2.69;60.09;92804.33;1877566;76;21181;-76
2021/04/16 08:05:55;;;;;;;2.65;2.37;;;;;;;2.69;60.62;92813.73;1878786;76;21034;-74
2021/04/16 08:08:34;;;;;;;1.25;1.15;;;;;;;2.66;60.35;92802.36;1836031;77;21034;-77
2021/04/16 08:11:12;;;;;;;1.67;1.57;;;;;;;2.65;61.06;92816.36;1841813;77;21121;-73
2021/04/16 08:13:50;;;;;;;1.60;1.50;;;;;;;2.67;60.68;92810.62;1837714;78;21357;-75
2021/04/16 08:16:39;;;;;;;1.62;1.52;;;;;;;2.68;61.24;92806.25;1879198;76;21093;-75
2021/04/16 08:19:20;;;;;;;2.10;1.77;;;;;;;2.74;61.00;92809.95;1914713;74;21113;-72
2021/04/16 08:21:54;;;;;;;1.45;1.35;;;;;;;2.75;61.33;92805.59;1885887;74;21200;-72
2021/04/16 08:24:35;;;;;;;1.62;1.52;;;;;;;2.73;60.35;92795.77;1897217;74;21547;-74
2021/04/16 08:27:40;;;;;;;1.98;1.77;;;;;;;2.70;61.12;92813.16;1902557;74;21737;-75
2021/04/16 08:30:42;;;;;;;1.57;1.47;;;;;;;2.72;60.93;92812.24;1880880;76;21584;-74
2021/04/16 08:33:30;;;;;;;1.98;1.87;;;;;;;2.72;61.15;92824.33;1892497;74;21116;-74
2021/04/16 08:36:07;;;;;;;1.35;1.25;;;;;;;2.67;60.83;92826.18;1900546;74;21117;-75
2021/04/16 08:38:41;;;;;;;1.55;1.45;;;;;;;2.67;60.76;92816.78;1879047;76;21121;-75
2021/04/16 08:41:10;;;;;;;1.75;1.65;;;;;;;2.69;59.84;92816.41;1881140;74;22597;-73
2021/04/16 08:43:44;;;;;;;2.02;1.45;;;;;;;2.70;61.58;92826.01;1916444;74;21152;-73
2021/04/16 08:46:40;;;;;;;1.82;1.72;;;;;;;2.73;61.38;92830.66;1816395;76;21149;-74
2021/04/16 08:49:24;;;;;;;1.55;1.45;;;;;;;2.74;60.50;92819.35;1884797;75;21547;-75
2021/04/16 08:51:58;;;;;;;1.70;1.60;;;;;;;2.76;60.88;92820.55;1851994;76;21141;-74
2021/04/16 08:54:31;;;;;;;1.72;1.62;;;;;;;2.85;61.55;92823.75;1833001;77;22258;-75
2021/04/16 08:57:09;;;;;;;1.77;1.67;;;;;;;2.94;61.18;92822.75;1847006;75;21102;-73
2021/04/16 08:59:58;;;;;;;1.70;1.60;;;;;;;2.98;61.06;92823.00;1838862;77;21585;-74
2021/04/16 09:02:32;;;;;;;1.77;1.65;;;;;;;2.95;61.16;92831.77;1827798;76;21281;-74
2021/04/16 09:05:06;;;;;;;1.60;1.50;;;;;;;2.92;61.03;92833.83;1876031;75;21545;-75
2021/04/16 09:07:43;;;;;;;1.80;1.70;;;;;;;2.88;60.81;92823.61;1822911;78;21874;-75
2021/04/16 09:10:22;;;;;;;1.42;1.32;;;;;;;2.90;61.39;92833.44;1879597;76;21189;-74
2021/04/16 09:12:56;;;;;;;2.40;2.17;;;;;;;3.01;61.93;92829.54;1911656;74;21113;-72
2021/04/16 09:15:35;;;;;;;3.15;2.12;;;;;;;3.04;61.05;92828.83;1888544;74;21069;-72
2021/04/16 09:18:26;;;;;;;2.33;1.98;;;;;;;3.02;61.29;92831.11;1854148;77;21153;-74
2021/04/16 09:21:02;;;;;;;3.70;2.02;;;;;;;2.96;60.95;92827.17;1846680;77;22032;-76
2021/04/16 09:23:46;;;;;;;2.22;1.90;;;;;;;2.89;61.36;92835.32;1788863;79;21286;-74
2021/04/16 09:26:13;;;;;;;2.55;2.35;;;;;;;2.90;61.85;92840.92;1884735;76;21109;-74
2021/04/16 09:28:56;;;;;;;2.40;2.20;;;;;;;2.96;62.31;92844.63;1811914;78;21129;-74
2021/04/16 09:31:43;;;;;;;2.47;2.27;;;;;;;3.01;61.78;92841.63;1833169;78;21148;-74
2021/04/16 09:34:21;;;;;;;2.00;1.87;;;;;;;3.05;62.46;92837.11;1851313;77;21169;-74
2021/04/16 09:36:52;;;;;;;1.98;1.87;;;;;;;3.13;61.81;92843.56;1845899;77;21118;-75
2021/04/16 09:39:36;;;;;;;2.58;2.37;;;;;;;3.09;62.17;92838.70;1841831;77;21588;-75
2021/04/16 09:42:42;;;;;;;2.40;2.20;;;;;;;3.10;61.45;92846.96;1839998;77;21188;-75
2021/04/16 09:45:24;;;;;;;2.92;2.70;;;;;;;3.11;62.17;92848.50;1846988;77;21185;-76
2021/04/16 09:47:53;;;;;;;2.90;2.70;;;;;;;3.19;62.20;92840.55;1850926;77;21828;-75
2021/04/16 09:50:27;;;;;;;2.95;2.65;;;;;;;3.24;62.45;92849.66;1853805;77;21140;-76
2021/04/16 09:53:19;;;;;;;2.50;2.30;;;;;;;3.24;61.73;92845.06;1847225;77;21579;-75
2021/04/16 09:56:02;;;;;;;3.00;2.70;;;;;;;3.25;62.47;92852.55;1822576;78;21169;-72
2021/04/16 09:58:38;;;;;;;2.77;2.58;;;;;;;3.20;62.17;92854.19;1824906;78;22246;-74
2021/04/16 10:01:11;;;;;;;3.30;3.00;;;;;;;3.15;62.89;92843.95;1841502;77;22752;-74
2021/04/16 10:03:46;;;;;;;3.25;2.92;;;;;;;3.27;64.30;92848.38;1855649;74;21165;-72
2021/04/16 10:06:32;;;;;;;3.87;3.27;;;;;;;3.40;62.43;92843.55;1902825;74;21038;-74
2021/04/16 10:09:07;;;;;;;3.25;2.70;;;;;;;3.43;64.17;92859.52;1878951;76;21129;-77
2021/04/16 10:11:35;;;;;;;4.05;3.58;;;;;;;3.52;63.15;92851.37;1880492;74;21057;-77
2021/04/16 10:14:23;;;;;;;3.20;2.90;;;;;;;3.55;62.23;92849.89;1876534;76;21174;-74
2021/04/16 10:17:07;;;;;;;4.12;3.60;;;;;;;3.47;62.36;92855.73;1819231;77;21142;-76
2021/04/16 10:20:08;;;;;;;4.05;3.62;;;;;;;3.37;63.89;92849.06;1870967;76;21606;-75
2021/04/16 10:22:37;;;;;;;4.97;3.95;;;;;;;3.43;64.21;92847.42;1818871;76;21042;-75
2021/04/16 12:38:22;;;;;;;4.70;3.77;;;;;;;2.67;67.50;92932.22;1897769;74;21117;-75
2021/04/16 12:40:40;;;;;;;4.83;4.15;;;;;;;2.67;67.77;92925.51;1888728;75;21535;-73
2021/04/16 12:43:08;;;;;;;4.83;3.92;;;;;;;2.64;66.86;92926.79;1891131;75;21607;-74
2021/04/16 12:45:35;;;;;;;4.37;3.75;;;;;;;2.49;67.05;92931.12;1889607;75;21136;-75
2021/04/16 12:48:03;;;;;;;3.40;3.10;;;;;;;2.37;67.38;92937.97;1890967;75;21986;-74
2021/04/16 12:50:32;;;;;;;4.05;3.50;;;;;;;2.27;68.47;92923.80;1924457;74;21149;-74
2021/04/16 12:52:59;;;;;;;4.33;3.75;;;;;;;2.31;68.69;92925.98;1903019;74;21120;-73
2021/04/16 12:55:27;;;;;;;4.35;3.87;;;;;;;2.37;67.51;92924.02;1891286;75;21510;-73
2021/04/16 12:57:58;;;;;;;4.25;3.40;;;;;;;2.35;66.81;92918.20;1900865;74;21109;-73
2021/04/16 13:00:32;;;;;;;3.45;3.15;;;;;;;2.31;68.05;92924.08;1929431;74;21341;-72
2021/04/16 13:03:10;;;;;;;4.35;3.95;;;;;;;2.31;67.69;92924.08;1863794;77;21168;-73
2021/04/16 13:05:38;;;;;;;3.90;3.52;;;;;;;2.29;68.49;92934.38;1853313;77;21121;-76
2021/04/16 13:08:06;;;;;;;5.95;4.03;;;;;;;2.31;69.10;92932.70;1843127;77;21050;-75
2021/04/16 13:10:34;;;;;;;4.40;3.50;;;;;;;2.42;68.76;92929.08;1872672;74;21046;-73
2021/04/16 13:13:02;;;;;;;4.35;3.87;;;;;;;2.50;67.62;92925.19;1901983;74;21674;-73
2021/04/16 13:15:31;;;;;;;4.28;3.67;;;;;;;2.49;67.14;92927.09;1852038;77;21094;-74
2021/04/16 13:18:02;;;;;;;4.28;3.58;;;;;;;2.40;66.53;92925.95;1842909;77;21062;-73
2021/04/16 13:20:30;;;;;;;4.20;3.37;;;;;;;2.25;68.42;92933.53;1903248;74;21113;-75
2021/04/16 13:22:57;;;;;;;4.80;3.90;;;;;;;2.19;68.46;92931.72;1894639;74;21156;-73
2021/04/16 13:25:28;;;;;;;3.67;3.37;;;;;;;2.16;69.57;92937.01;1879186;76;21586;-75
2021/04/16 13:27:56;;;;;;;4.33;3.67;;;;;;;2.16;69.57;92928.39;1887452;74;21239;-74
2021/04/16 13:30:27;;;;;;;4.65;3.50;;;;;;;2.24;69.90;92948.66;1917956;74;21030;-73
2021/04/16 13:33:16;;;;;;;4.60;3.83;;;;;;;2.27;69.58;92924.58;1880163;74;21149;-74
2021/04/16 13:35:49;;;;;;;6.17;3.60;;;;;;;2.28;69.19;92932.06;1910534;74;21640;-75
2021/04/16 13:38:21;;;;;;;3.77;3.35;;;;;;;2.28;69.29;92926.13;1870764;74;21241;-73
2021/04/16 13:40:49;;;;;;;4.72;3.90;;;;;;;2.37;70.20;92926.69;1882140;74;21164;-71
2021/04/16 13:43:16;;;;;;;3.87;3.52;;;;;;;2.44;69.57;92917.97;1904867;74;21153;-74
2021/04/16 13:45:44;;;;;;;6.62;4.00;;;;;;;2.47;67.44;92921.30;1877250;76;21149;-73
2021/04/16 13:48:12;;;;;;;4.08;3.70;;;;;;;2.43;69.05;92923.91;1878996;76;21211;-75
2021/04/16 13:50:40;;;;;;;3.85;3.55;;;;;;;2.50;68.14;92926.53;1908424;74;21602;-75
2021/04/16 13:53:07;;;;;;;5.30;4.17;;;;;;;2.59;69.08;92918.44;1878217;74;21207;-75
2021/04/16 13:55:34;;;;;;;4.53;4.03;;;;;;;2.74;67.33;92921.38;1874926;74;21041;-73
2021/04/16 13:58:02;;;;;;;5.10;3.92;;;;;;;2.81;67.40;92919.59;1914965;74;21019;-75
2021/04/16 14:00:31;;;;;;;3.80;3.50;;;;;;;2.99;69.07;92912.41;1880400;76;21070;-75
2021/04/16 14:03:24;;;;;;;6.55;4.30;;;;;;;3.20;67.73;92926.19;1878879;76;21179;-74
2021/04/16 14:05:53;;;;;;;5.15;3.98;;;;;;;3.41;66.58;92919.00;1897554;74;21129;-74
2021/04/16 14:08:33;;;;;;;5.95;4.37;;;;;;;3.47;64.32;92929.66;1874956;74;21136;-75
2021/04/16 14:11:01;;;;;;;4.25;3.85;;;;;;;3.40;63.42;92928.98;1846581;77;21173;-74
2021/04/16 14:13:28;;;;;;;4.53;4.08;;;;;;;3.25;64.80;92931.24;1862123;74;21113;-75
2021/04/16 14:16:07;;;;;;;6.85;4.65;;;;;;;3.15;63.95;92928.59;1914617;74;22765;-75